Time;durP1;ratioP1;P1;durP2;ratioP2;P2;SDS_P1;SDS_P2;PMS_P1;PMS_P2;Temp;Humidity;BMP_temperature;BMP_pressure;BME280_temperature;BME280_humidity;BME280_pressure;Samples;Min_cycle;Max_cycle;Signal;HPM_P1;HPM_P2
2023/07/07 00:02:23;;;;;;;0.75;0.40;;;;;;;15.51;100.00;99751.47;5052710;28;20123;-76
2023/07/07 00:04:49;;;;;;;0.30;0.30;;;;;;;15.55;100.00;99749.94;5019780;28;20041;-75
2023/07/07 00:07:14;;;;;;;0.20;0.20;;;;;;;15.60;100.00;99760.06;5051974;28;20463;-76
2023/07/07 00:09:40;;;;;;;0.32;0.32;;;;;;;15.62;100.00;99760.69;5035498;28;20037;-75
2023/07/07 00:12:06;;;;;;;0.38;0.30;;;;;;;15.61;100.00;99753.59;5019679;28;20028;-76
2023/07/07 00:14:32;;;;;;;0.25;0.25;;;;;;;15.59;100.00;99744.88;5019331;28;20129;-75
2023/07/07 00:17:01;;;;;;;0.30;0.30;;;;;;;15.61;100.00;99750.88;5052366;28;20029;-75
2023/07/07 00:19:33;;;;;;;0.20;0.20;;;;;;;15.55;100.00;99740.97;5035909;28;20025;-75
2023/07/07 00:22:02;;;;;;;0.25;0.25;;;;;;;15.63;100.00;99751.47;5052434;28;20040;-75
2023/07/07 00:24:28;;;;;;;0.30;0.30;;;;;;;15.67;100.00;99757.28;5035759;28;20028;-75
2023/07/07 00:26:54;;;;;;;0.30;0.30;;;;;;;15.66;100.00;99759.13;5052244;28;20124;-75
2023/07/07 00:29:19;;;;;;;0.52;0.40;;;;;;;15.69;100.00;99760.59;5051987;28;20033;-76
2023/07/07 00:31:48;;;;;;;0.20;0.20;;;;;;;15.72;100.00;99765.56;5052139;28;20025;-75
2023/07/07 00:34:18;;;;;;;0.30;0.30;;;;;;;15.72;100.00;99762.84;5035585;28;20036;-74
2023/07/07 00:36:44;;;;;;;0.20;0.20;;;;;;;15.78;100.00;99764.63;5052152;28;20033;-74
2023/07/07 00:39:09;;;;;;;0.63;0.40;;;;;;;15.79;100.00;99769.78;5035341;28;20128;-74
2023/07/07 00:41:35;;;;;;;0.20;0.20;;;;;;;15.82;100.00;99777.47;5052079;28;20028;-74
2023/07/07 00:44:05;;;;;;;0.30;0.30;;;;;;;15.81;100.00;99775.81;5051829;28;20063;-77
2023/07/07 00:46:34;;;;;;;0.52;0.30;;;;;;;15.75;100.00;99757.78;5019153;28;20025;-73
2023/07/07 00:49:17;;;;;;;0.20;0.20;;;;;;;15.79;100.00;99772.50;5052131;28;20467;-74
2023/07/07 00:51:49;;;;;;;0.30;0.30;;;;;;;15.78;100.00;99770.03;5037855;28;20044;-74
2023/07/07 00:54:24;;;;;;;0.22;0.22;;;;;;;15.76;100.00;99772.16;5040210;28;20033;-74
2023/07/07 00:56:52;;;;;;;0.30;0.30;;;;;;;15.74;100.00;99763.41;5039357;28;20034;-74
2023/07/07 00:59:22;;;;;;;0.60;0.38;;;;;;;15.74;100.00;99764.25;5022891;28;20037;-74
2023/07/07 01:01:55;;;;;;;0.30;0.30;;;;;;;15.70;100.00;99762.25;5023631;28;20035;-74
2023/07/07 01:04:21;;;;;;;0.20;0.20;;;;;;;15.68;100.00;99759.72;5039319;28;20063;-75
2023/07/07 01:06:51;;;;;;;0.20;0.20;;;;;;;15.72;100.00;99771.81;5055417;28;20037;-77
2023/07/07 01:09:19;;;;;;;0.20;0.20;;;;;;;15.61;100.00;99748.16;5055379;28;20033;-74
2023/07/07 01:11:52;;;;;;;0.30;0.30;;;;;;;15.70;100.00;99763.06;5022712;28;20033;-74
2023/07/07 01:14:22;;;;;;;0.20;0.20;;;;;;;15.74;100.00;99766.94;5039600;28;20094;-77
2023/07/07 01:16:52;;;;;;;0.20;0.20;;;;;;;15.78;100.00;99772.75;5055284;28;20486;-76
2023/07/07 01:19:44;;;;;;;0.30;0.30;;;;;;;15.78;100.00;99765.44;5039193;28;20060;-73
2023/07/07 01:22:25;;;;;;;0.20;0.20;;;;;;;15.80;100.00;99765.22;5040328;28;20116;-74
2023/07/07 01:25:17;;;;;;;1.00;0.50;;;;;;;15.78;100.00;99759.19;5056218;28;20111;-74
2023/07/07 01:27:46;;;;;;;0.30;0.30;;;;;;;15.76;100.00;99759.41;5055388;28;20043;-73
2023/07/07 01:30:30;;;;;;;0.30;0.30;;;;;;;15.71;100.00;99759.28;5039063;28;20090;-75
2023/07/07 01:33:02;;;;;;;0.20;0.20;;;;;;;15.61;100.00;99749.03;5039568;28;20494;-74
2023/07/07 01:35:27;;;;;;;0.20;0.20;;;;;;;15.74;100.00;99766.13;5021973;28;20029;-74
2023/07/07 01:37:55;;;;;;;0.30;0.30;;;;;;;15.75;100.00;99765.91;5055122;28;20427;-74
2023/07/07 01:40:44;;;;;;;0.20;0.20;;;;;;;15.74;100.00;99764.25;5022485;28;20052;-75
2023/07/07 01:43:24;;;;;;;0.30;0.30;;;;;;;15.75;100.00;99763.19;5022714;28;20049;-75
2023/07/07 01:45:57;;;;;;;0.20;0.20;;;;;;;15.76;100.00;99767.53;5006050;28;20493;-75
2023/07/07 01:48:35;;;;;;;0.28;0.28;;;;;;;15.70;100.00;99746.81;5055071;28;20491;-75
2023/07/07 01:51:02;;;;;;;0.20;0.20;;;;;;;15.72;100.00;99755.53;5055959;28;20029;-74
2023/07/07 01:53:32;;;;;;;0.20;0.20;;;;;;;15.74;100.00;99758.81;5038082;28;20037;-75
2023/07/07 01:55:59;;;;;;;0.20;0.20;;;;;;;15.72;100.00;99763.66;5054461;28;20032;-75
2023/07/07 01:58:26;;;;;;;0.30;0.30;;;;;;;15.68;100.00;99757.03;5054533;28;20028;-74
2023/07/07 02:00:53;;;;;;;0.30;0.30;;;;;;;15.71;100.00;99761.19;5022156;28;20434;-74
2023/07/07 02:03:19;;;;;;;0.20;0.20;;;;;;;15.72;100.00;99755.53;5053373;28;20120;-75
2023/07/07 02:05:46;;;;;;;0.55;0.40;;;;;;;15.71;100.00;99756.59;5054565;28;20104;-75
2023/07/07 02:08:16;;;;;;;0.20;0.20;;;;;;;15.74;100.00;99763.41;5022012;28;20086;-75
2023/07/07 02:10:41;;;;;;;0.20;0.20;;;;;;;15.72;100.00;99760.97;5037965;28;20045;-74
2023/07/07 02:13:10;;;;;;;0.47;0.30;;;;;;;15.75;100.00;99770.50;5054313;28;20025;-75
2023/07/07 02:15:38;;;;;;;1.30;0.52;;;;;;;15.76;100.00;99761.31;5037832;28;20103;-75
2023/07/07 02:18:04;;;;;;;0.30;0.30;;;;;;;15.73;100.00;99756.38;5037951;28;20029;-74
2023/07/07 02:20:31;;;;;;;0.30;0.30;;;;;;;15.66;100.00;99753.72;5055670;28;20021;-75
2023/07/07 02:22:56;;;;;;;1.02;0.40;;;;;;;15.69;100.00;99753.31;5021421;28;20091;-74
2023/07/07 02:25:25;;;;;;;0.75;0.50;;;;;;;15.72;100.00;99754.72;5037711;28;20036;-75
2023/07/07 02:27:51;;;;;;;0.70;0.40;;;;;;;15.69;100.00;99750.59;5054072;28;20029;-75
2023/07/07 02:30:19;;;;;;;0.30;0.30;;;;;;;15.70;100.00;99751.41;5037879;28;20383;-74
2023/07/07 02:32:45;;;;;;;0.55;0.32;;;;;;;15.73;100.00;99746.34;5037660;28;20127;-74
2023/07/07 02:35:13;;;;;;;0.30;0.30;;;;;;;15.75;100.00;99746.94;5055282;28;20031;-75
2023/07/07 02:37:39;;;;;;;0.20;0.20;;;;;;;15.79;100.00;99745.41;5037670;28;20087;-75
2023/07/07 02:40:09;;;;;;;0.30;0.30;;;;;;;15.79;100.00;99742.69;5054211;28;20453;-75
2023/07/07 02:42:35;;;;;;;0.30;0.30;;;;;;;15.80;100.00;99736.22;5037902;28;20452;-76
2023/07/07 02:45:01;;;;;;;0.30;0.30;;;;;;;15.74;100.00;99726.28;5036810;28;20103;-74
2023/07/07 02:47:30;;;;;;;0.20;0.20;;;;;;;15.81;100.00;99737.84;5037033;28;20468;-75
2023/07/07 02:49:58;;;;;;;0.52;0.40;;;;;;;15.78;100.00;99732.91;5021271;28;20068;-75
2023/07/07 02:52:24;;;;;;;0.28;0.28;;;;;;;15.77;100.00;99731.28;5054612;28;20452;-75
2023/07/07 02:54:50;;;;;;;1.15;0.50;;;;;;;15.77;100.00;99736.69;5037000;28;20032;-75
2023/07/07 02:57:15;;;;;;;0.20;0.20;;;;;;;15.77;100.00;99733.13;5054754;28;20111;-74
2023/07/07 02:59:41;;;;;;;0.30;0.30;;;;;;;15.81;100.00;99732.44;5053503;28;20102;-74
2023/07/07 03:02:09;;;;;;;0.25;0.25;;;;;;;15.78;100.00;99719.38;5020297;28;20032;-74
2023/07/07 03:04:35;;;;;;;0.30;0.30;;;;;;;15.81;100.00;99729.72;5037112;28;20104;-75
2023/07/07 03:07:01;;;;;;;0.32;0.30;;;;;;;15.79;100.00;99726.41;5036935;28;20468;-75
2023/07/07 03:09:26;;;;;;;0.20;0.20;;;;;;;15.76;100.00;99729.59;5053473;28;20041;-74
2023/07/07 03:11:52;;;;;;;0.28;0.28;;;;;;;15.78;100.00;99730.19;5053505;28;20036;-74
2023/07/07 03:14:23;;;;;;;0.20;0.20;;;;;;;15.74;100.00;99729.00;5052718;28;20033;-75
2023/07/07 03:16:51;;;;;;;1.17;0.47;;;;;;;15.72;100.00;99722.19;5037210;28;20024;-75
2023/07/07 03:19:20;;;;;;;0.20;0.20;;;;;;;15.78;100.00;99732.09;5053347;28;20029;-75
2023/07/07 03:21:45;;;;;;;0.30;0.30;;;;;;;15.79;100.00;99734.56;5020414;28;20479;-76
2023/07/07 03:24:14;;;;;;;0.20;0.20;;;;;;;15.70;100.00;99716.19;5054144;28;20050;-75
2023/07/07 03:26:43;;;;;;;0.20;0.20;;;;;;;15.82;100.00;99733.25;5036795;28;20029;-75
2023/07/07 03:29:11;;;;;;;0.30;0.30;;;;;;;15.81;100.00;99732.44;5053034;28;20025;-75
2023/07/07 03:31:37;;;;;;;1.70;0.60;;;;;;;15.82;100.00;99735.97;5036449;28;20065;-76
2023/07/07 03:34:04;;;;;;;0.20;0.20;;;;;;;15.83;100.00;99733.03;5053174;28;20061;-75
2023/07/07 03:36:32;;;;;;;0.30;0.30;;;;;;;15.76;100.00;99717.94;5020191;28;20139;-75
2023/07/07 03:38:57;;;;;;;0.25;0.25;;;;;;;15.84;100.00;99736.56;5020136;28;20064;-75
2023/07/07 03:41:28;;;;;;;0.45;0.40;;;;;;;15.90;100.00;99746.44;5052653;28;20415;-76
2023/07/07 03:43:55;;;;;;;0.30;0.30;;;;;;;15.90;100.00;99740.22;5020170;28;20183;-76
2023/07/07 03:46:23;;;;;;;0.25;0.25;;;;;;;15.91;100.00;99742.69;5052740;28;20032;-75
2023/07/07 03:48:49;;;;;;;0.20;0.20;;;;;;;15.93;100.00;99746.00;5020055;28;20033;-75
2023/07/07 03:51:18;;;;;;;0.25;0.25;;;;;;;15.96;100.00;99750.13;5052826;28;20075;-75
2023/07/07 03:53:44;;;;;;;1.40;0.50;;;;;;;15.91;100.00;99750.03;5019493;28;20090;-76
2023/07/07 03:56:11;;;;;;;0.30;0.30;;;;;;;15.83;100.00;99757.44;5035496;28;20029;-75
2023/07/07 03:58:36;;;;;;;0.20;0.20;;;;;;;15.74;100.00;99739.84;5052784;28;20032;-76
2023/07/07 04:01:03;;;;;;;1.25;0.55;;;;;;;15.80;100.00;99757.91;5052761;28;20485;-75
2023/07/07 04:03:32;;;;;;;0.30;0.30;;;;;;;15.79;100.00;99761.66;5020270;28;20439;-75
2023/07/07 04:05:58;;;;;;;0.30;0.30;;;;;;;15.80;100.00;99763.31;5052570;28;20037;-76
2023/07/07 04:08:26;;;;;;;0.20;0.20;;;;;;;15.75;100.00;99755.06;5019354;28;20095;-75
2023/07/07 04:11:06;;;;;;;0.90;0.40;;;;;;;15.80;100.00;99766.03;5051718;28;20063;-77
2023/07/07 04:13:35;;;;;;;0.30;0.30;;;;;;;15.81;100.00;99759.53;5052116;28;20025;-75
2023/07/07 04:16:07;;;;;;;0.55;0.32;;;;;;;15.82;100.00;99769.34;5019265;28;20082;-75
2023/07/07 04:18:34;;;;;;;0.50;0.40;;;;;;;15.85;100.00;99772.63;5018897;28;20045;-75
2023/07/07 04:21:06;;;;;;;0.30;0.30;;;;;;;15.84;100.00;99779.94;5035397;28;20049;-75
2023/07/07 04:23:33;;;;;;;0.30;0.28;;;;;;;15.87;100.00;99779.47;5036121;28;20060;-75
2023/07/07 04:25:59;;;;;;;0.25;0.25;;;;;;;15.87;100.00;99782.16;5035206;28;20033;-75
2023/07/07 04:28:25;;;;;;;0.20;0.20;;;;;;;15.85;100.00;99778.03;5052003;28;20078;-75
2023/07/07 04:30:55;;;;;;;0.43;0.40;;;;;;;15.87;100.00;99787.59;5051444;28;20025;-74
2023/07/07 04:33:27;;;;;;;0.30;0.30;;;;;;;15.86;100.00;99788.66;5019537;28;20033;-75
2023/07/07 04:35:59;;;;;;;0.20;0.20;;;;;;;15.75;100.00;99768.63;5047962;28;20028;-75
2023/07/07 04:38:31;;;;;;;0.25;0.25;;;;;;;15.85;100.00;99786.19;5019571;28;20387;-75
2023/07/07 04:41:11;;;;;;;0.40;0.30;;;;;;;15.87;100.00;99789.47;5019485;28;20502;-75
2023/07/07 04:43:43;;;;;;;0.35;0.30;;;;;;;15.85;100.00;99797.03;5019310;28;20033;-75
2023/07/07 04:46:11;;;;;;;0.65;0.40;;;;;;;15.87;100.00;99794.91;5019154;28;20046;-74
2023/07/07 04:48:37;;;;;;;0.73;0.38;;;;;;;15.85;100.00;99788.88;5019012;28;20483;-77
2023/07/07 04:51:08;;;;;;;1.02;0.47;;;;;;;15.89;100.00;99796.31;5018693;28;20094;-75
2023/07/07 04:53:36;;;;;;;0.30;0.30;;;;;;;15.81;100.00;99781.22;5052299;28;20033;-76
2023/07/07 04:56:06;;;;;;;0.30;0.30;;;;;;;15.86;100.00;99790.56;5002608;28;20037;-75
2023/07/07 04:58:33;;;;;;;0.30;0.30;;;;;;;15.93;100.00;99815.66;5019027;28;20083;-75
2023/07/07 05:01:12;;;;;;;0.90;0.40;;;;;;;15.91;100.00;99798.81;5034944;28;20104;-75
2023/07/07 05:03:40;;;;;;;1.65;0.60;;;;;;;15.96;100.00;99804.34;5034815;28;20041;-77
2023/07/07 05:06:10;;;;;;;0.22;0.22;;;;;;;16.02;100.00;99809.66;5019075;28;20037;-76
2023/07/07 05:08:40;;;;;;;0.30;0.30;;;;;;;16.04;100.00;99809.44;5018986;28;20076;-75
2023/07/07 05:11:11;;;;;;;0.30;0.30;;;;;;;16.11;100.00;99812.84;5051800;28;20040;-75
2023/07/07 05:13:40;;;;;;;0.30;0.30;;;;;;;16.13;100.00;99818.84;5002871;28;20052;-76
2023/07/07 05:16:11;;;;;;;0.20;0.20;;;;;;;16.12;100.00;99821.81;5019506;28;20036;-74
2023/07/07 05:18:37;;;;;;;0.55;0.40;;;;;;;16.11;100.00;99822.84;5051457;28;20467;-75
2023/07/07 05:21:06;;;;;;;0.30;0.30;;;;;;;16.09;100.00;99817.69;5035321;28;20040;-76
2023/07/07 05:23:35;;;;;;;0.47;0.30;;;;;;;16.10;100.00;99819.31;5035495;28;20048;-75
2023/07/07 05:26:01;;;;;;;0.63;0.40;;;;;;;16.11;100.00;99814.72;5051680;28;20029;-74
2023/07/07 05:28:27;;;;;;;0.20;0.20;;;;;;;16.15;100.00;99818.63;5035306;28;20036;-75
2023/07/07 05:30:52;;;;;;;0.22;0.22;;;;;;;16.04;100.00;99793.16;5018560;28;20788;-75
2023/07/07 05:33:20;;;;;;;0.45;0.40;;;;;;;16.20;100.00;99811.44;5051661;28;20693;-75
2023/07/07 05:35:50;;;;;;;0.50;0.30;;;;;;;16.23;100.00;99816.38;5035077;28;20053;-76
2023/07/07 05:38:16;;;;;;;0.52;0.30;;;;;;;16.31;100.00;99817.91;5037344;28;20087;-75
2023/07/07 05:40:43;;;;;;;0.20;0.20;;;;;;;16.35;100.00;99819.06;5022233;28;20040;-75
2023/07/07 05:43:14;;;;;;;0.30;0.30;;;;;;;16.18;100.00;99807.31;5054833;28;20021;-77
2023/07/07 05:45:40;;;;;;;0.30;0.30;;;;;;;16.25;100.00;99810.75;5022148;28;20044;-76
2023/07/07 05:48:05;;;;;;;0.30;0.30;;;;;;;16.28;100.00;99823.81;5022108;28;20044;-76
2023/07/07 05:50:31;;;;;;;0.30;0.30;;;;;;;16.30;100.00;99820.84;5021996;28;20036;-75
2023/07/07 05:52:57;;;;;;;0.65;0.40;;;;;;;16.27;100.00;99816.72;5038368;28;20040;-75
2023/07/07 05:55:29;;;;;;;0.30;0.30;;;;;;;16.50;100.00;99821.31;5038122;28;20059;-75
2023/07/07 05:57:58;;;;;;;0.30;0.30;;;;;;;16.67;100.00;99824.97;5038682;28;20037;-76
2023/07/07 06:00:27;;;;;;;0.20;0.20;;;;;;;16.80;100.00;99831.22;5038008;28;20025;-75
2023/07/07 06:02:59;;;;;;;1.17;0.50;;;;;;;16.80;100.00;99818.47;5022206;28;20071;-76
2023/07/07 06:05:25;;;;;;;0.25;0.25;;;;;;;16.75;100.00;99812.06;5037641;28;20079;-77
2023/07/07 06:07:52;;;;;;;0.80;0.40;;;;;;;16.92;100.00;99823.88;5037854;28;20498;-75
2023/07/07 06:10:22;;;;;;;0.57;0.40;;;;;;;17.05;100.00;99830.94;5054799;28;20487;-74
2023/07/07 06:12:48;;;;;;;0.22;0.22;;;;;;;17.16;100.00;99830.06;5054630;28;20136;-74
2023/07/07 06:15:14;;;;;;;0.30;0.30;;;;;;;17.14;100.00;99838.44;5021508;28;20037;-76
2023/07/07 06:17:42;;;;;;;0.85;0.47;;;;;;;17.22;100.00;99841.84;5053866;28;20036;-74
2023/07/07 06:20:12;;;;;;;0.65;0.40;;;;;;;17.33;100.00;99836.38;5055423;28;20041;-74
2023/07/07 06:22:38;;;;;;;0.30;0.30;;;;;;;17.41;100.00;99850.63;5021366;28;20095;-76
2023/07/07 06:25:04;;;;;;;0.52;0.38;;;;;;;17.36;100.00;99843.22;5037887;28;20045;-76
2023/07/07 06:27:30;;;;;;;0.40;0.32;;;;;;;17.39;100.00;99840.00;5053558;28;20464;-75
2023/07/07 06:29:58;;;;;;;1.15;0.55;;;;;;;17.30;100.00;99819.72;5053832;28;20116;-74
2023/07/07 06:32:26;;;;;;;0.43;0.40;;;;;;;17.43;100.00;99841.16;5037449;28;20033;-74
2023/07/07 06:34:55;;;;;;;0.75;0.40;;;;;;;17.42;100.00;99839.53;5055426;28;20029;-74
2023/07/07 06:37:20;;;;;;;0.30;0.30;;;;;;;17.42;100.00;99849.56;5038145;28;20106;-74
2023/07/07 06:39:46;;;;;;;0.90;0.50;;;;;;;17.46;100.00;99834.41;5037248;28;20463;-75
2023/07/07 06:42:12;;;;;;;0.63;0.40;;;;;;;17.56;100.00;99835.41;5036323;28;20045;-75
2023/07/07 06:44:38;;;;;;;0.68;0.40;;;;;;;17.67;100.00;99832.88;5037497;28;20108;-74
2023/07/07 06:47:13;;;;;;;2.97;0.98;;;;;;;18.15;100.00;99836.97;5020577;28;20486;-74
2023/07/07 06:49:42;;;;;;;1.02;0.50;;;;;;;18.06;100.00;99820.25;5003589;28;20396;-75
2023/07/07 06:52:11;;;;;;;1.23;0.45;;;;;;;18.28;100.00;99838.53;5037535;28;20076;-75
2023/07/07 06:54:36;;;;;;;0.90;0.52;;;;;;;18.15;100.00;99842.41;5020441;28;20475;-75
2023/07/07 06:57:06;;;;;;;1.23;0.60;;;;;;;18.18;100.00;99844.66;5036681;28;20048;-74
2023/07/07 06:59:32;;;;;;;0.65;0.47;;;;;;;18.19;100.00;99849.03;5037075;28;20037;-75
2023/07/07 07:02:00;;;;;;;1.00;0.50;;;;;;;18.22;100.00;99849.34;5036311;28;20102;-76
2023/07/07 07:04:31;;;;;;;0.45;0.35;;;;;;;18.06;100.00;99842.00;5054213;28;20040;-75
2023/07/07 07:06:57;;;;;;;1.50;0.60;;;;;;;18.11;100.00;99863.03;5053130;28;20159;-75
2023/07/07 07:09:28;;;;;;;0.60;0.30;;;;;;;18.06;100.00;99868.41;5020245;28;20509;-75
2023/07/07 07:11:54;;;;;;;1.90;0.73;;;;;;;18.02;100.00;99863.47;5036501;28;20029;-75
2023/07/07 07:14:24;;;;;;;0.73;0.50;;;;;;;18.06;100.00;99866.50;5052979;28;20041;-74
2023/07/07 07:16:52;;;;;;;0.38;0.38;;;;;;;18.17;100.00;99864.75;5020397;28;20033;-75
2023/07/07 07:19:18;;;;;;;0.32;0.32;;;;;;;18.35;100.00;99875.41;5052725;28;20029;-74
2023/07/07 07:21:43;;;;;;;0.43;0.40;;;;;;;18.45;100.00;99872.84;5052778;28;20487;-74
2023/07/07 07:24:09;;;;;;;0.40;0.40;;;;;;;18.53;100.00;99876.22;5053118;28;20037;-75
2023/07/07 07:26:35;;;;;;;0.70;0.40;;;;;;;18.53;100.00;99881.66;5053996;28;20459;-75
2023/07/07 07:29:00;;;;;;;0.82;0.50;;;;;;;18.57;100.00;99877.34;5036568;28;20072;-75
2023/07/07 07:31:26;;;;;;;1.25;0.55;;;;;;;18.66;100.00;99886.75;5053211;28;20036;-75
2023/07/07 07:34:13;;;;;;;0.55;0.40;;;;;;;18.76;100.00;99897.81;5052677;28;20107;-74
2023/07/07 07:36:38;;;;;;;0.38;0.32;;;;;;;18.94;100.00;99896.69;5035883;28;20033;-74
2023/07/07 07:39:04;;;;;;;0.70;0.43;;;;;;;18.82;100.00;99896.81;5036214;28;20387;-74
2023/07/07 07:41:34;;;;;;;1.85;0.63;;;;;;;18.71;100.00;99885.97;5036005;28;20025;-74
2023/07/07 07:44:00;;;;;;;3.38;1.08;;;;;;;18.87;100.00;99894.16;5052590;28;20478;-74
2023/07/07 07:46:26;;;;;;;1.23;0.50;;;;;;;19.03;100.00;99908.00;5052823;28;20043;-73
2023/07/07 07:48:52;;;;;;;0.93;0.52;;;;;;;19.03;100.00;99903.34;5036354;28;20036;-75
2023/07/07 07:51:17;;;;;;;0.40;0.40;;;;;;;19.13;100.00;99902.66;5052687;28;20059;-75
2023/07/07 07:53:43;;;;;;;0.32;0.32;;;;;;;19.32;100.00;99906.72;5052704;28;20052;-75
2023/07/07 07:56:09;;;;;;;1.52;0.60;;;;;;;20.09;100.00;99915.72;5052197;28;20479;-75
2023/07/07 07:58:35;;;;;;;0.60;0.40;;;;;;;21.07;100.00;99915.34;5019733;28;20090;-75
2023/07/07 08:01:00;;;;;;;0.40;0.40;;;;;;;21.23;100.00;99901.75;5051485;28;20025;-75
2023/07/07 08:03:26;;;;;;;0.70;0.50;;;;;;;21.29;100.00;99911.63;5052198;28;20471;-75
2023/07/07 08:05:57;;;;;;;0.50;0.47;;;;;;;21.51;100.00;99909.53;5053352;28;20094;-74
2023/07/07 08:08:23;;;;;;;0.30;0.30;;;;;;;21.61;100.00;99918.84;5016084;28;20065;-74
2023/07/07 08:10:49;;;;;;;0.38;0.38;;;;;;;21.69;100.00;99907.38;5019748;28;20080;-75
2023/07/07 08:13:15;;;;;;;1.65;0.73;;;;;;;22.03;100.00;99926.88;5052127;28;20036;-75
2023/07/07 08:15:44;;;;;;;0.65;0.55;;;;;;;23.31;100.00;99918.50;5051266;28;20036;-74
2023/07/07 08:18:09;;;;;;;7.07;2.25;;;;;;;23.09;100.00;99918.06;5051107;28;20029;-75
2023/07/07 08:20:35;;;;;;;1.88;1.73;;;;;;;23.44;100.00;99917.09;5051533;28;20082;-76
2023/07/07 08:23:02;;;;;;;7.53;1.58;;;;;;;23.41;100.00;99917.66;5051244;28;20061;-81
2023/07/07 08:25:28;;;;;;;4.10;1.88;;;;;;;23.06;100.00;99894.78;5017036;28;20025;-80
2023/07/07 08:27:56;;;;;;;2.85;1.50;;;;;;;23.07;100.00;99915.59;5050131;28;20029;-80
2023/07/07 08:30:25;;;;;;;1.73;0.90;;;;;;;22.57;100.00;99906.34;5001777;28;20041;-78
2023/07/07 08:32:50;;;;;;;6.53;2.25;;;;;;;22.35;100.00;99917.63;5049831;28;20108;-80
2023/07/07 08:35:16;;;;;;;4.80;1.90;;;;;;;22.16;100.00;99915.38;5033537;28;20104;-80
2023/07/07 08:37:42;;;;;;;3.55;2.08;;;;;;;21.91;100.00;99897.03;5018632;28;20028;-80
2023/07/07 08:40:21;;;;;;;5.35;2.33;;;;;;;22.09;100.00;99934.00;5051803;28;20024;-79
2023/07/07 08:42:46;;;;;;;4.05;1.75;;;;;;;21.98;100.00;99934.25;5019672;28;20487;-79
2023/07/07 08:45:18;;;;;;;2.95;1.58;;;;;;;22.08;100.00;99934.28;5035807;28;20071;-79
2023/07/07 08:48:21;;;;;;;7.97;1.80;;;;;;;21.49;100.00;99950.00;5035416;28;20106;-81
2023/07/07 08:50:53;;;;;;;7.05;1.95;;;;;;;21.52;100.00;99938.53;5035193;28;20033;-81
2023/07/07 08:53:43;;;;;;;3.58;1.48;;;;;;;22.45;100.00;99953.22;5035582;28;20494;-79
2023/07/07 08:56:33;;;;;;;6.57;2.75;;;;;;;23.00;100.00;99947.97;5035197;28;20066;-79
2023/07/07 08:59:51;;;;;;;5.32;1.77;;;;;;;22.97;100.00;99951.25;5035658;28;20032;-79
2023/07/07 09:02:17;;;;;;;4.35;1.63;;;;;;;22.47;100.00;99959.25;4996701;28;20041;-80
2023/07/07 09:05:07;;;;;;;3.60;3.30;;;;;;;22.31;100.00;99939.25;5051801;28;20396;-80
2023/07/07 09:08:04;;;;;;;2.50;1.42;;;;;;;22.65;100.00;99954.28;5035446;28;20033;-80
2023/07/07 09:10:54;;;;;;;3.55;2.30;;;;;;;24.46;100.00;99938.44;5034336;28;20094;-80
2023/07/07 09:13:22;;;;;;;;;;;;;;;24.01;100.00;99959.63;5022730;28;20115;-78
2023/07/07 09:16:00;;;;;;;3.45;1.90;;;;;;;23.67;100.00;99951.28;5055257;28;20011;-78
2023/07/07 09:18:34;;;;;;;2.85;1.45;;;;;;;22.62;100.00;99958.41;5049986;28;20041;-79
2023/07/07 09:21:02;;;;;;;5.47;2.05;;;;;;;22.38;100.00;99967.19;5022625;28;20041;-78
2023/07/07 09:23:36;;;;;;;3.78;1.65;;;;;;;21.99;100.00;99963.28;5054642;28;20391;-78
2023/07/07 09:26:14;;;;;;;4.40;2.03;;;;;;;22.03;100.00;99969.84;5054987;28;20392;-78
2023/07/07 09:28:43;;;;;;;4.63;1.75;;;;;;;21.81;100.00;99967.34;5038093;28;20052;-81
2023/07/07 09:31:29;;;;;;;6.80;2.20;;;;;;;21.35;100.00;99967.97;5038752;28;20028;-82
2023/07/07 09:33:56;;;;;;;7.88;2.13;;;;;;;20.64;100.00;99966.47;5022191;28;20090;-82
2023/07/07 09:36:27;;;;;;;3.78;1.33;;;;;;;20.18;100.00;99967.94;5022082;28;20361;-82
2023/07/07 09:38:59;;;;;;;4.70;1.58;;;;;;;20.15;100.00;99993.03;5038808;28;20037;-82
2023/07/07 09:41:56;;;;;;;2.63;1.35;;;;;;;20.33;100.00;99992.66;5041071;28;20059;-81
2023/07/07 09:44:45;;;;;;;5.07;2.08;;;;;;;21.04;100.00;100000.63;5039943;28;20029;-82
2023/07/07 09:47:21;;;;;;;6.57;2.17;;;;;;;21.97;100.00;100001.88;5022156;28;20056;-80
2023/07/07 09:49:58;;;;;;;3.35;1.63;;;;;;;22.16;100.00;100004.94;5021666;28;20029;-82
2023/07/07 09:52:36;;;;;;;2.72;1.58;;;;;;;21.77;100.00;100013.56;5022953;28;20068;-82
2023/07/07 09:55:06;;;;;;;7.93;1.80;;;;;;;21.53;100.00;100015.94;5038244;28;20103;-80
2023/07/07 09:57:36;;;;;;;4.13;1.60;;;;;;;21.05;100.00;100015.09;5021669;28;20129;-80
2023/07/07 10:00:03;;;;;;;5.50;1.65;;;;;;;20.59;100.00;100007.38;5021622;28;20103;-81
2023/07/07 10:02:30;;;;;;;6.07;2.03;;;;;;;20.47;100.00;100020.34;5021746;28;20492;-82
2023/07/07 10:05:02;;;;;;;5.40;2.08;;;;;;;20.52;100.00;100020.41;5021642;28;20387;-80
2023/07/07 10:07:33;;;;;;;4.35;2.00;;;;;;;21.33;100.00;100013.06;5037839;28;20032;-81
2023/07/07 10:10:02;;;;;;;6.20;1.63;;;;;;;22.66;100.00;100018.97;5054330;28;20074;-80
2023/07/07 10:12:28;;;;;;;5.45;2.30;;;;;;;23.47;100.00;100018.03;5021782;28;20036;-81
2023/07/07 10:14:58;;;;;;;9.90;2.35;;;;;;;24.22;100.00;100022.66;5020785;28;20033;-76
2023/07/07 10:17:48;;;;;;;4.07;2.00;;;;;;;25.13;93.74;99990.03;5021504;28;20041;-80
2023/07/07 10:20:17;;;;;;;6.40;2.00;;;;;;;26.34;89.57;100013.56;5021481;28;20115;-76
2023/07/07 10:22:45;;;;;;;7.05;2.45;;;;;;;27.37;82.78;100030.06;5037499;28;20116;-79
2023/07/07 10:25:15;;;;;;;5.55;2.55;;;;;;;29.30;71.16;100034.22;5020620;28;20025;-79
2023/07/07 10:27:49;;;;;;;3.28;2.30;;;;;;;29.99;61.04;100024.50;5054056;28;20074;-79
2023/07/07 10:30:15;;;;;;;3.95;2.05;;;;;;;28.98;61.86;100029.78;5054360;28;20115;-81
2023/07/07 10:32:40;;;;;;;3.35;1.75;;;;;;;28.12;64.56;100022.44;5020519;28;20551;-80
2023/07/07 10:35:08;;;;;;;5.65;2.00;;;;;;;27.38;67.97;100036.38;5020765;28;20082;-81
2023/07/07 10:37:36;;;;;;;5.07;2.38;;;;;;;28.43;64.78;100030.88;5020792;28;20060;-82
2023/07/07 10:40:03;;;;;;;5.90;2.10;;;;;;;29.34;59.53;100015.81;5053726;28;20025;-80
2023/07/07 10:42:31;;;;;;;3.78;1.90;;;;;;;29.23;55.50;100020.00;5037630;28;20115;-81
2023/07/07 10:45:00;;;;;;;6.38;2.05;;;;;;;29.56;54.27;100014.13;5037215;28;20033;-81
2023/07/07 10:47:29;;;;;;;6.55;2.38;;;;;;;30.64;49.38;100031.88;5037492;28;20482;-79
2023/07/07 10:49:56;;;;;;;8.38;2.97;;;;;;;29.50;50.80;100015.38;5054093;28;20036;-81
2023/07/07 10:53:16;;;;;;;4.45;1.98;;;;;;;28.90;51.92;100033.31;5037131;28;20033;-79
2023/07/07 10:56:05;;;;;;;4.18;2.28;;;;;;;28.82;51.51;100034.91;5034734;28;20041;-81
2023/07/07 10:58:59;;;;;;;5.28;1.80;;;;;;;26.78;55.87;100028.06;5037255;28;20029;-84
2023/07/07 11:01:39;;;;;;;6.82;2.17;;;;;;;25.83;59.80;100030.81;5037197;28;20029;-83
2023/07/07 11:04:26;;;;;;;5.07;1.92;;;;;;;24.85;64.73;100035.66;5020593;28;20067;-82
2023/07/07 11:07:28;;;;;;;7.05;2.13;;;;;;;26.38;61.22;100046.88;5053247;28;20087;-81
2023/07/07 11:09:56;;;;;;;;;;;;;;;27.48;56.68;100043.66;5032646;28;20037;-83
2023/07/07 11:12:38;;;;;;;4.78;2.45;;;;;;;29.13;52.00;100048.75;5032790;28;19986;-82
2023/07/07 11:15:22;;;;;;;6.85;2.58;;;;;;;29.43;50.63;100053.81;5052377;28;20029;-81
2023/07/07 11:18:07;;;;;;;7.57;3.00;;;;;;;29.19;50.43;100048.63;5067758;28;20048;-81
2023/07/07 11:21:00;;;;;;;3.65;1.90;;;;;;;29.22;49.04;100054.38;5053269;28;20028;-80
2023/07/07 11:23:54;;;;;;;6.35;2.25;;;;;;;27.59;52.37;100068.00;5020517;28;20025;-82
2023/07/07 11:27:01;;;;;;;5.30;1.70;;;;;;;28.40;50.23;100058.31;5054291;28;20029;-82
2023/07/07 11:29:36;;;;;;;3.97;1.60;;;;;;;26.80;54.34;100058.91;5044844;28;20502;-80
2023/07/07 11:32:20;;;;;;;4.20;1.90;;;;;;;25.97;55.51;100050.22;5036733;28;20041;-80
2023/07/07 11:35:01;;;;;;;6.25;2.13;;;;;;;25.35;59.03;100063.81;5036540;28;20065;-79
2023/07/07 11:37:50;;;;;;;7.57;2.33;;;;;;;26.21;58.13;100064.75;5053088;28;20029;-80
2023/07/07 11:40:34;;;;;;;5.38;3.17;;;;;;;27.70;53.96;100067.78;5053242;28;20037;-79
2023/07/07 11:43:31;;;;;;;8.57;2.90;;;;;;;29.86;47.88;100055.94;5053168;28;20501;-79